Iverson, Texas
Current Conditions -  °F | °C
As of 10:30 AM on Friday 31 Oct 2014 (Local Time) from KINJ Reporting Station
Clear Clear  
Wind Chill: 63°   Ceiling: Unl
Heat Index: 63°   Visibility: 10mi
Dew Point: 43°   Wind: 17mph
Humidity: 49%   Direction: 360°N
Pressure: 30.31"   Gusts: 24mph
Location:  32.1748°N, 96.9849°W
Report Text: KINJ 311530Z AUTO 36015G21KT 10SM CLR 17/06 A3031 RMK AO2 T01700062
Loading
Personal Weather Stations






























Interactive Weather Map
Tropical Storm Tracking
New forecast layout! Learn more

10-Day Weather Forecast

Advertisements
Track Severe Weather on mobile